sensor_id;sensor_type;location;lat;lon;timestamp;P1;durP1;ratioP1;P2;durP2;ratioP2
20084;SDS011;10202;48.474;9.138;2023-05-07T00:00:53;4.28;;;3.30;;
20084;SDS011;10202;48.474;9.138;2023-05-07T00:03:21;4.72;;;3.30;;
20084;SDS011;10202;48.474;9.138;2023-05-07T00:05:49;4.53;;;3.47;;
20084;SDS011;10202;48.474;9.138;2023-05-07T00:08:23;3.83;;;3.22;;
20084;SDS011;10202;48.474;9.138;2023-05-07T00:10:51;3.90;;;3.20;;
20084;SDS011;10202;48.474;9.138;2023-05-07T00:13:17;4.70;;;3.20;;
20084;SDS011;10202;48.474;9.138;2023-05-07T00:15:44;3.80;;;3.30;;
20084;SDS011;10202;48.474;9.138;2023-05-07T00:18:12;6.72;;;3.53;;
20084;SDS011;10202;48.474;9.138;2023-05-07T00:20:48;5.25;;;3.05;;
20084;SDS011;10202;48.474;9.138;2023-05-07T00:23:19;7.47;;;3.70;;
20084;SDS011;10202;48.474;9.138;2023-05-07T00:25:51;4.03;;;3.03;;
20084;SDS011;10202;48.474;9.138;2023-05-07T00:28:17;5.10;;;3.05;;
20084;SDS011;10202;48.474;9.138;2023-05-07T00:30:42;7.28;;;3.72;;
20084;SDS011;10202;48.474;9.138;2023-05-07T00:33:08;6.45;;;3.40;;
20084;SDS011;10202;48.474;9.138;2023-05-07T00:35:34;3.72;;;3.03;;
20084;SDS011;10202;48.474;9.138;2023-05-07T00:37:59;3.67;;;3.03;;
20084;SDS011;10202;48.474;9.138;2023-05-07T00:40:29;6.43;;;2.78;;
20084;SDS011;10202;48.474;9.138;2023-05-07T00:42:55;3.58;;;3.03;;
20084;SDS011;10202;48.474;9.138;2023-05-07T00:45:24;6.95;;;3.17;;
20084;SDS011;10202;48.474;9.138;2023-05-07T00:47:59;7.10;;;3.20;;
20084;SDS011;10202;48.474;9.138;2023-05-07T00:50:26;5.63;;;3.35;;
20084;SDS011;10202;48.474;9.138;2023-05-07T00:52:53;3.70;;;3.33;;
20084;SDS011;10202;48.474;9.138;2023-05-07T00:55:23;4.78;;;3.10;;
20084;SDS011;10202;48.474;9.138;2023-05-07T00:57:51;5.80;;;3.47;;
20084;SDS011;10202;48.474;9.138;2023-05-07T01:00:21;4.28;;;2.95;;
20084;SDS011;10202;48.474;9.138;2023-05-07T01:02:47;3.58;;;2.95;;
20084;SDS011;10202;48.474;9.138;2023-05-07T01:05:15;3.45;;;3.05;;
20084;SDS011;10202;48.474;9.138;2023-05-07T01:07:45;4.78;;;3.00;;
20084;SDS011;10202;48.474;9.138;2023-05-07T01:10:14;3.75;;;2.88;;
20084;SDS011;10202;48.474;9.138;2023-05-07T01:12:40;3.67;;;2.80;;
20084;SDS011;10202;48.474;9.138;2023-05-07T01:15:07;6.32;;;2.92;;
20084;SDS011;10202;48.474;9.138;2023-05-07T01:17:36;4.22;;;2.67;;
20084;SDS011;10202;48.474;9.138;2023-05-07T01:20:10;3.42;;;2.88;;
20084;SDS011;10202;48.474;9.138;2023-05-07T01:22:39;3.53;;;3.05;;
20084;SDS011;10202;48.474;9.138;2023-05-07T01:25:08;4.90;;;3.08;;
20084;SDS011;10202;48.474;9.138;2023-05-07T01:27:40;3.10;;;2.50;;
20084;SDS011;10202;48.474;9.138;2023-05-07T01:30:06;3.13;;;2.78;;
20084;SDS011;10202;48.474;9.138;2023-05-07T01:32:36;4.05;;;2.67;;
20084;SDS011;10202;48.474;9.138;2023-05-07T01:35:15;4.15;;;3.10;;
20084;SDS011;10202;48.474;9.138;2023-05-07T01:37:57;3.17;;;2.78;;
20084;SDS011;10202;48.474;9.138;2023-05-07T01:40:24;4.43;;;2.83;;
20084;SDS011;10202;48.474;9.138;2023-05-07T01:42:52;3.22;;;2.92;;
20084;SDS011;10202;48.474;9.138;2023-05-07T01:45:21;4.55;;;3.17;;
20084;SDS011;10202;48.474;9.138;2023-05-07T01:47:48;5.03;;;3.17;;
20084;SDS011;10202;48.474;9.138;2023-05-07T01:50:15;3.30;;;2.80;;
20084;SDS011;10202;48.474;9.138;2023-05-07T01:52:44;4.80;;;3.45;;
20084;SDS011;10202;48.474;9.138;2023-05-07T01:55:12;4.57;;;3.17;;
20084;SDS011;10202;48.474;9.138;2023-05-07T01:57:40;6.53;;;3.47;;
20084;SDS011;10202;48.474;9.138;2023-05-07T02:00:09;3.42;;;2.90;;
20084;SDS011;10202;48.474;9.138;2023-05-07T02:02:43;2.95;;;2.70;;
20084;SDS011;10202;48.474;9.138;2023-05-07T02:05:20;3.47;;;3.17;;
20084;SDS011;10202;48.474;9.138;2023-05-07T02:07:51;6.80;;;3.35;;
20084;SDS011;10202;48.474;9.138;2023-05-07T02:10:19;4.07;;;3.08;;
20084;SDS011;10202;48.474;9.138;2023-05-07T02:12:54;3.58;;;2.80;;
20084;SDS011;10202;48.474;9.138;2023-05-07T02:15:20;3.67;;;2.75;;
20084;SDS011;10202;48.474;9.138;2023-05-07T02:18:02;3.53;;;2.92;;
20084;SDS011;10202;48.474;9.138;2023-05-07T02:20:34;3.15;;;2.70;;
20084;SDS011;10202;48.474;9.138;2023-05-07T02:23:01;5.03;;;2.88;;
20084;SDS011;10202;48.474;9.138;2023-05-07T02:25:28;3.03;;;2.70;;
20084;SDS011;10202;48.474;9.138;2023-05-07T02:27:58;3.37;;;2.93;;
20084;SDS011;10202;48.474;9.138;2023-05-07T02:30:37;4.22;;;2.97;;
20084;SDS011;10202;48.474;9.138;2023-05-07T02:33:06;4.72;;;2.83;;
20084;SDS011;10202;48.474;9.138;2023-05-07T02:35:33;3.00;;;2.70;;
20084;SDS011;10202;48.474;9.138;2023-05-07T02:38:04;5.10;;;3.55;;
20084;SDS011;10202;48.474;9.138;2023-05-07T02:40:31;4.30;;;3.00;;
20084;SDS011;10202;48.474;9.138;2023-05-07T02:43:05;5.05;;;3.15;;
20084;SDS011;10202;48.474;9.138;2023-05-07T02:45:41;5.05;;;3.00;;
20084;SDS011;10202;48.474;9.138;2023-05-07T02:48:09;3.63;;;3.28;;
20084;SDS011;10202;48.474;9.138;2023-05-07T02:50:35;5.00;;;3.53;;
20084;SDS011;10202;48.474;9.138;2023-05-07T02:53:01;6.78;;;3.17;;
20084;SDS011;10202;48.474;9.138;2023-05-07T02:55:31;5.25;;;3.25;;
20084;SDS011;10202;48.474;9.138;2023-05-07T02:57:56;4.97;;;3.28;;
20084;SDS011;10202;48.474;9.138;2023-05-07T03:00:23;4.75;;;3.00;;
20084;SDS011;10202;48.474;9.138;2023-05-07T03:03:06;6.50;;;3.22;;
20084;SDS011;10202;48.474;9.138;2023-05-07T03:05:32;5.10;;;3.65;;
20084;SDS011;10202;48.474;9.138;2023-05-07T03:07:57;4.72;;;3.78;;
20084;SDS011;10202;48.474;9.138;2023-05-07T03:10:25;4.07;;;3.30;;
20084;SDS011;10202;48.474;9.138;2023-05-07T03:12:50;7.47;;;3.35;;
20084;SDS011;10202;48.474;9.138;2023-05-07T03:15:19;7.72;;;3.60;;
20084;SDS011;10202;48.474;9.138;2023-05-07T03:17:49;5.75;;;3.42;;
20084;SDS011;10202;48.474;9.138;2023-05-07T03:20:20;5.63;;;3.40;;
20084;SDS011;10202;48.474;9.138;2023-05-07T03:22:50;4.72;;;3.55;;
20084;SDS011;10202;48.474;9.138;2023-05-07T03:25:15;6.22;;;3.60;;
20084;SDS011;10202;48.474;9.138;2023-05-07T03:27:41;5.93;;;3.80;;
20084;SDS011;10202;48.474;9.138;2023-05-07T03:30:07;4.30;;;3.70;;
20084;SDS011;10202;48.474;9.138;2023-05-07T03:32:39;4.35;;;3.30;;
20084;SDS011;10202;48.474;9.138;2023-05-07T03:35:09;4.28;;;3.60;;
20084;SDS011;10202;48.474;9.138;2023-05-07T03:37:35;4.88;;;3.60;;
20084;SDS011;10202;48.474;9.138;2023-05-07T03:40:05;7.55;;;3.53;;
20084;SDS011;10202;48.474;9.138;2023-05-07T03:42:40;8.13;;;3.60;;
20084;SDS011;10202;48.474;9.138;2023-05-07T03:45:06;4.68;;;3.50;;
20084;SDS011;10202;48.474;9.138;2023-05-07T03:47:39;5.65;;;3.50;;
20084;SDS011;10202;48.474;9.138;2023-05-07T03:50:07;5.63;;;3.50;;
20084;SDS011;10202;48.474;9.138;2023-05-07T03:52:36;6.68;;;3.58;;
20084;SDS011;10202;48.474;9.138;2023-05-07T03:55:06;4.13;;;3.55;;
20084;SDS011;10202;48.474;9.138;2023-05-07T03:57:34;7.47;;;3.67;;
20084;SDS011;10202;48.474;9.138;2023-05-07T04:00:00;8.27;;;4.10;;
20084;SDS011;10202;48.474;9.138;2023-05-07T04:02:28;6.75;;;3.35;;
20084;SDS011;10202;48.474;9.138;2023-05-07T04:04:58;7.28;;;3.50;;
20084;SDS011;10202;48.474;9.138;2023-05-07T04:07:26;7.15;;;3.75;;
20084;SDS011;10202;48.474;9.138;2023-05-07T04:09:52;5.28;;;3.85;;
20084;SDS011;10202;48.474;9.138;2023-05-07T04:12:20;6.55;;;3.83;;
20084;SDS011;10202;48.474;9.138;2023-05-07T04:14:50;7.78;;;3.95;;
20084;SDS011;10202;48.474;9.138;2023-05-07T04:17:22;5.30;;;3.88;;
20084;SDS011;10202;48.474;9.138;2023-05-07T04:19:50;6.10;;;4.05;;
20084;SDS011;10202;48.474;9.138;2023-05-07T04:22:17;5.00;;;3.55;;
20084;SDS011;10202;48.474;9.138;2023-05-07T04:24:46;8.43;;;4.20;;
20084;SDS011;10202;48.474;9.138;2023-05-07T04:27:12;5.75;;;3.88;;
20084;SDS011;10202;48.474;9.138;2023-05-07T04:29:40;4.20;;;3.80;;
20084;SDS011;10202;48.474;9.138;2023-05-07T04:32:10;5.18;;;4.05;;
20084;SDS011;10202;48.474;9.138;2023-05-07T04:34:39;4.80;;;3.88;;
20084;SDS011;10202;48.474;9.138;2023-05-07T04:37:09;3.92;;;3.28;;
20084;SDS011;10202;48.474;9.138;2023-05-07T04:39:40;9.70;;;3.70;;
20084;SDS011;10202;48.474;9.138;2023-05-07T04:42:14;4.78;;;3.40;;
20084;SDS011;10202;48.474;9.138;2023-05-07T04:44:43;6.80;;;3.83;;
20084;SDS011;10202;48.474;9.138;2023-05-07T04:47:14;5.30;;;4.00;;
20084;SDS011;10202;48.474;9.138;2023-05-07T04:49:40;4.15;;;3.70;;
20084;SDS011;10202;48.474;9.138;2023-05-07T04:52:07;6.07;;;4.10;;
20084;SDS011;10202;48.474;9.138;2023-05-07T04:54:38;10.68;;;4.70;;
20084;SDS011;10202;48.474;9.138;2023-05-07T04:57:04;3.90;;;3.50;;
20084;SDS011;10202;48.474;9.138;2023-05-07T04:59:33;4.15;;;3.75;;
20084;SDS011;10202;48.474;9.138;2023-05-07T05:01:59;5.30;;;3.97;;
20084;SDS011;10202;48.474;9.138;2023-05-07T05:04:27;6.85;;;3.70;;
20084;SDS011;10202;48.474;9.138;2023-05-07T05:06:56;4.07;;;3.67;;
20084;SDS011;10202;48.474;9.138;2023-05-07T05:09:27;4.63;;;3.78;;
20084;SDS011;10202;48.474;9.138;2023-05-07T05:11:52;6.55;;;3.88;;
20084;SDS011;10202;48.474;9.138;2023-05-07T05:14:23;5.55;;;3.80;;
20084;SDS011;10202;48.474;9.138;2023-05-07T05:16:52;4.30;;;3.60;;
20084;SDS011;10202;48.474;9.138;2023-05-07T05:19:21;4.68;;;3.60;;
20084;SDS011;10202;48.474;9.138;2023-05-07T05:21:46;4.45;;;3.50;;
20084;SDS011;10202;48.474;9.138;2023-05-07T05:24:12;9.02;;;4.22;;
20084;SDS011;10202;48.474;9.138;2023-05-07T05:26:40;4.43;;;3.45;;
20084;SDS011;10202;48.474;9.138;2023-05-07T05:29:10;5.88;;;3.33;;
20084;SDS011;10202;48.474;9.138;2023-05-07T05:31:39;6.70;;;3.88;;
20084;SDS011;10202;48.474;9.138;2023-05-07T05:34:07;6.13;;;3.95;;
20084;SDS011;10202;48.474;9.138;2023-05-07T05:36:34;4.97;;;3.70;;
20084;SDS011;10202;48.474;9.138;2023-05-07T05:39:09;4.93;;;3.85;;
20084;SDS011;10202;48.474;9.138;2023-05-07T05:41:37;5.72;;;3.45;;
20084;SDS011;10202;48.474;9.138;2023-05-07T05:44:07;5.70;;;3.97;;
20084;SDS011;10202;48.474;9.138;2023-05-07T05:46:35;4.18;;;3.78;;
20084;SDS011;10202;48.474;9.138;2023-05-07T05:49:03;4.72;;;3.67;;
20084;SDS011;10202;48.474;9.138;2023-05-07T05:51:30;5.90;;;4.22;;
20084;SDS011;10202;48.474;9.138;2023-05-07T05:53:59;5.85;;;4.25;;
20084;SDS011;10202;48.474;9.138;2023-05-07T05:56:24;4.82;;;3.80;;
20084;SDS011;10202;48.474;9.138;2023-05-07T05:58:52;5.28;;;4.18;;
20084;SDS011;10202;48.474;9.138;2023-05-07T06:01:22;4.82;;;3.70;;
20084;SDS011;10202;48.474;9.138;2023-05-07T06:03:50;4.75;;;3.88;;
20084;SDS011;10202;48.474;9.138;2023-05-07T06:06:16;6.07;;;4.15;;
20084;SDS011;10202;48.474;9.138;2023-05-07T06:08:43;4.50;;;4.10;;
20084;SDS011;10202;48.474;9.138;2023-05-07T06:11:11;7.25;;;3.75;;
20084;SDS011;10202;48.474;9.138;2023-05-07T06:13:39;4.68;;;4.20;;
20084;SDS011;10202;48.474;9.138;2023-05-07T06:16:07;5.15;;;4.10;;
20084;SDS011;10202;48.474;9.138;2023-05-07T06:18:37;5.03;;;3.80;;
20084;SDS011;10202;48.474;9.138;2023-05-07T06:21:03;5.45;;;3.70;;
20084;SDS011;10202;48.474;9.138;2023-05-07T06:23:33;4.65;;;3.92;;
20084;SDS011;10202;48.474;9.138;2023-05-07T06:26:01;4.40;;;4.00;;
20084;SDS011;10202;48.474;9.138;2023-05-07T06:28:32;7.78;;;4.40;;
20084;SDS011;10202;48.474;9.138;2023-05-07T06:33:53;7.00;;;3.95;;
20084;SDS011;10202;48.474;9.138;2023-05-07T06:36:18;5.22;;;4.07;;
20084;SDS011;10202;48.474;9.138;2023-05-07T06:38:48;9.25;;;4.32;;
20084;SDS011;10202;48.474;9.138;2023-05-07T06:41:14;5.82;;;4.00;;
20084;SDS011;10202;48.474;9.138;2023-05-07T06:43:42;4.25;;;3.85;;
20084;SDS011;10202;48.474;9.138;2023-05-07T06:46:26;7.93;;;4.15;;
20084;SDS011;10202;48.474;9.138;2023-05-07T06:48:52;3.85;;;3.50;;
20084;SDS011;10202;48.474;9.138;2023-05-07T06:51:22;4.88;;;4.18;;
20084;SDS011;10202;48.474;9.138;2023-05-07T06:53:50;4.25;;;3.50;;
20084;SDS011;10202;48.474;9.138;2023-05-07T06:56:23;4.47;;;3.80;;
20084;SDS011;10202;48.474;9.138;2023-05-07T06:58:53;3.80;;;3.40;;
20084;SDS011;10202;48.474;9.138;2023-05-07T07:01:19;6.38;;;3.88;;
20084;SDS011;10202;48.474;9.138;2023-05-07T07:03:48;4.97;;;3.72;;
20084;SDS011;10202;48.474;9.138;2023-05-07T07:06:13;5.50;;;4.13;;
20084;SDS011;10202;48.474;9.138;2023-05-07T07:08:44;7.53;;;3.95;;
20084;SDS011;10202;48.474;9.138;2023-05-07T07:11:12;6.57;;;4.13;;
20084;SDS011;10202;48.474;9.138;2023-05-07T07:13:38;5.95;;;3.67;;
20084;SDS011;10202;48.474;9.138;2023-05-07T07:16:06;5.10;;;3.55;;
20084;SDS011;10202;48.474;9.138;2023-05-07T07:18:36;5.70;;;3.83;;
20084;SDS011;10202;48.474;9.138;2023-05-07T07:21:04;6.18;;;3.53;;
20084;SDS011;10202;48.474;9.138;2023-05-07T07:23:32;6.88;;;3.85;;
20084;SDS011;10202;48.474;9.138;2023-05-07T07:25:58;6.05;;;3.63;;
20084;SDS011;10202;48.474;9.138;2023-05-07T07:28:26;6.32;;;3.83;;
20084;SDS011;10202;48.474;9.138;2023-05-07T07:30:54;5.22;;;3.90;;
20084;SDS011;10202;48.474;9.138;2023-05-07T07:33:20;4.90;;;3.70;;
20084;SDS011;10202;48.474;9.138;2023-05-07T07:35:46;7.50;;;3.25;;
20084;SDS011;10202;48.474;9.138;2023-05-07T07:38:11;3.83;;;3.30;;
20084;SDS011;10202;48.474;9.138;2023-05-07T07:40:39;5.93;;;3.42;;
20084;SDS011;10202;48.474;9.138;2023-05-07T07:43:07;7.22;;;3.95;;
20084;SDS011;10202;48.474;9.138;2023-05-07T07:45:35;4.78;;;3.67;;
20084;SDS011;10202;48.474;9.138;2023-05-07T07:48:02;4.45;;;3.60;;
20084;SDS011;10202;48.474;9.138;2023-05-07T07:50:35;5.32;;;3.45;;
20084;SDS011;10202;48.474;9.138;2023-05-07T07:53:05;4.47;;;3.45;;
20084;SDS011;10202;48.474;9.138;2023-05-07T07:55:37;3.95;;;3.65;;
20084;SDS011;10202;48.474;9.138;2023-05-07T07:58:08;6.43;;;3.58;;
20084;SDS011;10202;48.474;9.138;2023-05-07T08:00:33;5.63;;;3.78;;
20084;SDS011;10202;48.474;9.138;2023-05-07T08:03:01;4.60;;;3.50;;
20084;SDS011;10202;48.474;9.138;2023-05-07T08:05:32;3.88;;;3.30;;
20084;SDS011;10202;48.474;9.138;2023-05-07T08:08:04;5.15;;;3.53;;
20084;SDS011;10202;48.474;9.138;2023-05-07T08:10:35;8.52;;;3.80;;
20084;SDS011;10202;48.474;9.138;2023-05-07T08:13:07;7.20;;;3.88;;
20084;SDS011;10202;48.474;9.138;2023-05-07T08:15:38;4.25;;;3.38;;
20084;SDS011;10202;48.474;9.138;2023-05-07T08:18:04;3.65;;;3.25;;
20084;SDS011;10202;48.474;9.138;2023-05-07T08:20:31;4.53;;;3.38;;
20084;SDS011;10202;48.474;9.138;2023-05-07T08:23:02;4.40;;;3.80;;
20084;SDS011;10202;48.474;9.138;2023-05-07T08:25:28;3.38;;;3.08;;
20084;SDS011;10202;48.474;9.138;2023-05-07T08:28:01;4.30;;;3.42;;
20084;SDS011;10202;48.474;9.138;2023-05-07T08:30:29;4.18;;;3.60;;
20084;SDS011;10202;48.474;9.138;2023-05-07T08:32:55;4.75;;;3.63;;
20084;SDS011;10202;48.474;9.138;2023-05-07T08:35:23;3.83;;;3.53;;
20084;SDS011;10202;48.474;9.138;2023-05-07T08:37:51;5.53;;;4.00;;
20084;SDS011;10202;48.474;9.138;2023-05-07T08:40:17;6.35;;;3.90;;
20084;SDS011;10202;48.474;9.138;2023-05-07T08:42:44;4.25;;;3.53;;
20084;SDS011;10202;48.474;9.138;2023-05-07T08:45:10;6.30;;;3.53;;
20084;SDS011;10202;48.474;9.138;2023-05-07T08:47:55;5.28;;;4.05;;
20084;SDS011;10202;48.474;9.138;2023-05-07T08:50:28;4.93;;;3.47;;
20084;SDS011;10202;48.474;9.138;2023-05-07T08:52:57;6.25;;;3.75;;
20084;SDS011;10202;48.474;9.138;2023-05-07T08:55:26;4.90;;;3.53;;
20084;SDS011;10202;48.474;9.138;2023-05-07T08:57:54;4.70;;;3.70;;
20084;SDS011;10202;48.474;9.138;2023-05-07T09:00:24;5.45;;;3.80;;
20084;SDS011;10202;48.474;9.138;2023-05-07T09:02:52;4.72;;;3.85;;
20084;SDS011;10202;48.474;9.138;2023-05-07T09:05:19;5.85;;;3.92;;
20084;SDS011;10202;48.474;9.138;2023-05-07T09:07:53;8.60;;;3.70;;
20084;SDS011;10202;48.474;9.138;2023-05-07T09:10:23;4.47;;;3.58;;
20084;SDS011;10202;48.474;9.138;2023-05-07T09:12:53;4.95;;;3.55;;
20084;SDS011;10202;48.474;9.138;2023-05-07T09:15:21;5.00;;;3.78;;
20084;SDS011;10202;48.474;9.138;2023-05-07T09:17:49;6.15;;;3.85;;
20084;SDS011;10202;48.474;9.138;2023-05-07T09:20:15;4.68;;;3.58;;
20084;SDS011;10202;48.474;9.138;2023-05-07T09:22:41;4.68;;;3.53;;
20084;SDS011;10202;48.474;9.138;2023-05-07T09:25:11;4.93;;;3.70;;
20084;SDS011;10202;48.474;9.138;2023-05-07T09:27:39;4.70;;;3.45;;
20084;SDS011;10202;48.474;9.138;2023-05-07T09:30:09;4.00;;;3.33;;
20084;SDS011;10202;48.474;9.138;2023-05-07T09:32:36;3.78;;;3.17;;
20084;SDS011;10202;48.474;9.138;2023-05-07T09:35:16;6.15;;;3.70;;
20084;SDS011;10202;48.474;9.138;2023-05-07T09:37:44;7.68;;;3.78;;
20084;SDS011;10202;48.474;9.138;2023-05-07T09:40:20;5.30;;;3.55;;
20084;SDS011;10202;48.474;9.138;2023-05-07T09:42:55;6.10;;;3.45;;
20084;SDS011;10202;48.474;9.138;2023-05-07T09:45:24;7.68;;;4.47;;
20084;SDS011;10202;48.474;9.138;2023-05-07T09:47:55;4.07;;;3.70;;
20084;SDS011;10202;48.474;9.138;2023-05-07T09:50:26;6.00;;;3.03;;
20084;SDS011;10202;48.474;9.138;2023-05-07T09:53:01;5.45;;;3.40;;
20084;SDS011;10202;48.474;9.138;2023-05-07T09:55:31;3.80;;;3.40;;
20084;SDS011;10202;48.474;9.138;2023-05-07T09:57:59;3.75;;;3.22;;
20084;SDS011;10202;48.474;9.138;2023-05-07T10:00:26;5.15;;;3.20;;
20084;SDS011;10202;48.474;9.138;2023-05-07T10:03:03;3.40;;;2.90;;
20084;SDS011;10202;48.474;9.138;2023-05-07T10:05:39;3.42;;;2.80;;
20084;SDS011;10202;48.474;9.138;2023-05-07T10:08:12;3.15;;;2.72;;
20084;SDS011;10202;48.474;9.138;2023-05-07T10:10:39;3.50;;;2.78;;
20084;SDS011;10202;48.474;9.138;2023-05-07T10:13:08;3.55;;;2.80;;
20084;SDS011;10202;48.474;9.138;2023-05-07T10:15:38;3.25;;;2.65;;
20084;SDS011;10202;48.474;9.138;2023-05-07T10:18:04;3.47;;;2.78;;
20084;SDS011;10202;48.474;9.138;2023-05-07T10:20:35;3.22;;;2.58;;
20084;SDS011;10202;48.474;9.138;2023-05-07T10:23:04;3.33;;;2.80;;
20084;SDS011;10202;48.474;9.138;2023-05-07T10:25:38;5.68;;;2.53;;
20084;SDS011;10202;48.474;9.138;2023-05-07T10:28:14;4.75;;;2.50;;
20084;SDS011;10202;48.474;9.138;2023-05-07T10:33:38;4.88;;;2.42;;
20084;SDS011;10202;48.474;9.138;2023-05-07T10:36:07;4.22;;;2.60;;
20084;SDS011;10202;48.474;9.138;2023-05-07T10:38:38;3.08;;;2.60;;
20084;SDS011;10202;48.474;9.138;2023-05-07T10:41:06;2.80;;;2.60;;
20084;SDS011;10202;48.474;9.138;2023-05-07T10:43:42;2.80;;;2.40;;
20084;SDS011;10202;48.474;9.138;2023-05-07T10:46:19;2.78;;;2.47;;
20084;SDS011;10202;48.474;9.138;2023-05-07T10:51:27;3.40;;;2.17;;
20084;SDS011;10202;48.474;9.138;2023-05-07T10:56:42;2.67;;;2.42;;
20084;SDS011;10202;48.474;9.138;2023-05-07T11:04:33;3.08;;;2.38;;
20084;SDS011;10202;48.474;9.138;2023-05-07T11:17:59;4.22;;;2.50;;
20084;SDS011;10202;48.474;9.138;2023-05-07T11:26:45;4.72;;;2.65;;
20084;SDS011;10202;48.474;9.138;2023-05-07T11:31:47;5.82;;;2.50;;
20084;SDS011;10202;48.474;9.138;2023-05-07T11:34:23;3.33;;;2.58;;
20084;SDS011;10202;48.474;9.138;2023-05-07T11:36:51;4.80;;;2.25;;
20084;SDS011;10202;48.474;9.138;2023-05-07T11:39:27;3.10;;;2.50;;
20084;SDS011;10202;48.474;9.138;2023-05-07T11:41:58;3.85;;;2.53;;
20084;SDS011;10202;48.474;9.138;2023-05-07T11:44:25;4.00;;;2.05;;
20084;SDS011;10202;48.474;9.138;2023-05-07T11:46:52;2.00;;;1.90;;
20084;SDS011;10202;48.474;9.138;2023-05-07T11:49:20;5.82;;;2.40;;
20084;SDS011;10202;48.474;9.138;2023-05-07T11:51:46;2.40;;;2.20;;
20084;SDS011;10202;48.474;9.138;2023-05-07T11:54:12;3.55;;;1.88;;
20084;SDS011;10202;48.474;9.138;2023-05-07T11:56:43;2.45;;;2.08;;
20084;SDS011;10202;48.474;9.138;2023-05-07T11:59:16;3.67;;;2.10;;
20084;SDS011;10202;48.474;9.138;2023-05-07T12:01:45;3.72;;;1.88;;
20084;SDS011;10202;48.474;9.138;2023-05-07T12:04:18;2.08;;;1.88;;
20084;SDS011;10202;48.474;9.138;2023-05-07T12:06:54;2.50;;;2.28;;
20084;SDS011;10202;48.474;9.138;2023-05-07T12:09:20;2.25;;;1.90;;
20084;SDS011;10202;48.474;9.138;2023-05-07T12:11:46;6.40;;;2.40;;
20084;SDS011;10202;48.474;9.138;2023-05-07T12:14:12;8.77;;;2.40;;
20084;SDS011;10202;48.474;9.138;2023-05-07T12:16:41;5.30;;;2.72;;
20084;SDS011;10202;48.474;9.138;2023-05-07T12:19:07;4.03;;;2.35;;
20084;SDS011;10202;48.474;9.138;2023-05-07T12:21:34;4.68;;;2.47;;
20084;SDS011;10202;48.474;9.138;2023-05-07T12:24:00;4.15;;;2.35;;
20084;SDS011;10202;48.474;9.138;2023-05-07T12:26:28;3.85;;;2.60;;
20084;SDS011;10202;48.474;9.138;2023-05-07T12:28:53;2.95;;;2.30;;
20084;SDS011;10202;48.474;9.138;2023-05-07T12:31:27;2.58;;;2.30;;
20084;SDS011;10202;48.474;9.138;2023-05-07T12:33:55;4.90;;;2.28;;
20084;SDS011;10202;48.474;9.138;2023-05-07T12:36:21;5.10;;;2.47;;
20084;SDS011;10202;48.474;9.138;2023-05-07T12:38:49;4.35;;;2.42;;
20084;SDS011;10202;48.474;9.138;2023-05-07T12:41:18;3.78;;;2.30;;
20084;SDS011;10202;48.474;9.138;2023-05-07T12:43:50;5.05;;;2.50;;
20084;SDS011;10202;48.474;9.138;2023-05-07T12:46:24;5.63;;;2.38;;
20084;SDS011;10202;48.474;9.138;2023-05-07T12:48:52;2.78;;;2.45;;
20084;SDS011;10202;48.474;9.138;2023-05-07T12:51:17;2.15;;;1.95;;
20084;SDS011;10202;48.474;9.138;2023-05-07T12:53:45;4.53;;;2.38;;
20084;SDS011;10202;48.474;9.138;2023-05-07T12:56:15;3.13;;;2.17;;
20084;SDS011;10202;48.474;9.138;2023-05-07T12:58:40;2.53;;;2.25;;
20084;SDS011;10202;48.474;9.138;2023-05-07T13:01:07;7.05;;;2.80;;
20084;SDS011;10202;48.474;9.138;2023-05-07T13:03:40;4.28;;;2.22;;
20084;SDS011;10202;48.474;9.138;2023-05-07T13:06:13;2.60;;;2.40;;
20084;SDS011;10202;48.474;9.138;2023-05-07T13:08:40;3.65;;;2.53;;
20084;SDS011;10202;48.474;9.138;2023-05-07T13:11:08;5.72;;;2.47;;
20084;SDS011;10202;48.474;9.138;2023-05-07T13:13:40;3.33;;;2.30;;
20084;SDS011;10202;48.474;9.138;2023-05-07T13:16:09;10.93;;;2.88;;
20084;SDS011;10202;48.474;9.138;2023-05-07T13:18:38;8.48;;;3.33;;
20084;SDS011;10202;48.474;9.138;2023-05-07T13:21:05;7.80;;;3.00;;
20084;SDS011;10202;48.474;9.138;2023-05-07T13:23:35;4.25;;;2.90;;
20084;SDS011;10202;48.474;9.138;2023-05-07T13:26:03;6.80;;;2.83;;
20084;SDS011;10202;48.474;9.138;2023-05-07T13:28:37;3.90;;;2.60;;
20084;SDS011;10202;48.474;9.138;2023-05-07T13:31:05;3.85;;;2.70;;
20084;SDS011;10202;48.474;9.138;2023-05-07T13:33:31;6.43;;;2.83;;
20084;SDS011;10202;48.474;9.138;2023-05-07T13:35:57;4.13;;;2.95;;
20084;SDS011;10202;48.474;9.138;2023-05-07T13:38:25;3.63;;;2.97;;
20084;SDS011;10202;48.474;9.138;2023-05-07T13:40:53;4.93;;;2.67;;
20084;SDS011;10202;48.474;9.138;2023-05-07T13:43:19;5.10;;;2.97;;
20084;SDS011;10202;48.474;9.138;2023-05-07T13:45:50;2.97;;;2.67;;
20084;SDS011;10202;48.474;9.138;2023-05-07T13:48:23;3.65;;;2.72;;
20084;SDS011;10202;48.474;9.138;2023-05-07T13:50:48;3.60;;;3.20;;
20084;SDS011;10202;48.474;9.138;2023-05-07T13:53:18;3.78;;;3.10;;
20084;SDS011;10202;48.474;9.138;2023-05-07T13:55:44;5.43;;;3.20;;
20084;SDS011;10202;48.474;9.138;2023-05-07T13:58:13;4.53;;;3.00;;
20084;SDS011;10202;48.474;9.138;2023-05-07T14:00:40;6.43;;;3.15;;
20084;SDS011;10202;48.474;9.138;2023-05-07T14:03:06;3.03;;;2.72;;
20084;SDS011;10202;48.474;9.138;2023-05-07T14:05:32;5.80;;;3.00;;
20084;SDS011;10202;48.474;9.138;2023-05-07T14:07:57;4.68;;;2.60;;
20084;SDS011;10202;48.474;9.138;2023-05-07T14:10:29;6.43;;;2.85;;
20084;SDS011;10202;48.474;9.138;2023-05-07T14:12:55;5.03;;;2.90;;
20084;SDS011;10202;48.474;9.138;2023-05-07T14:15:21;3.83;;;2.47;;
20084;SDS011;10202;48.474;9.138;2023-05-07T14:17:49;5.50;;;2.80;;
20084;SDS011;10202;48.474;9.138;2023-05-07T14:20:16;5.05;;;3.10;;
20084;SDS011;10202;48.474;9.138;2023-05-07T14:22:42;4.18;;;2.95;;
20084;SDS011;10202;48.474;9.138;2023-05-07T14:25:12;5.78;;;3.38;;
20084;SDS011;10202;48.474;9.138;2023-05-07T14:27:38;3.60;;;2.83;;
20084;SDS011;10202;48.474;9.138;2023-05-07T14:30:04;5.63;;;2.85;;
20084;SDS011;10202;48.474;9.138;2023-05-07T14:32:31;5.22;;;2.75;;
20084;SDS011;10202;48.474;9.138;2023-05-07T14:34:58;5.43;;;3.35;;
20084;SDS011;10202;48.474;9.138;2023-05-07T14:37:25;7.70;;;3.60;;
20084;SDS011;10202;48.474;9.138;2023-05-07T14:39:56;4.15;;;3.35;;
20084;SDS011;10202;48.474;9.138;2023-05-07T14:42:21;5.35;;;3.75;;
20084;SDS011;10202;48.474;9.138;2023-05-07T14:44:47;5.45;;;3.45;;
20084;SDS011;10202;48.474;9.138;2023-05-07T14:47:13;6.60;;;3.15;;
20084;SDS011;10202;48.474;9.138;2023-05-07T14:49:43;7.13;;;3.60;;
20084;SDS011;10202;48.474;9.138;2023-05-07T14:52:13;4.13;;;3.53;;
20084;SDS011;10202;48.474;9.138;2023-05-07T14:54:38;3.95;;;3.25;;
20084;SDS011;10202;48.474;9.138;2023-05-07T14:57:05;6.88;;;3.30;;
20084;SDS011;10202;48.474;9.138;2023-05-07T14:59:31;9.18;;;3.30;;
20084;SDS011;10202;48.474;9.138;2023-05-07T15:02:00;4.80;;;3.10;;
20084;SDS011;10202;48.474;9.138;2023-05-07T15:04:30;4.97;;;3.30;;
20084;SDS011;10202;48.474;9.138;2023-05-07T15:06:55;4.65;;;3.58;;
20084;SDS011;10202;48.474;9.138;2023-05-07T15:09:25;5.57;;;3.10;;
20084;SDS011;10202;48.474;9.138;2023-05-07T15:11:51;6.85;;;3.08;;
20084;SDS011;10202;48.474;9.138;2023-05-07T15:14:17;5.00;;;3.03;;
20084;SDS011;10202;48.474;9.138;2023-05-07T15:16:43;4.55;;;2.80;;
20084;SDS011;10202;48.474;9.138;2023-05-07T15:19:14;3.47;;;3.13;;
20084;SDS011;10202;48.474;9.138;2023-05-07T15:21:42;5.20;;;3.10;;
20084;SDS011;10202;48.474;9.138;2023-05-07T15:24:08;5.22;;;3.10;;
20084;SDS011;10202;48.474;9.138;2023-05-07T15:26:36;7.13;;;2.83;;
20084;SDS011;10202;48.474;9.138;2023-05-07T15:29:05;5.07;;;3.05;;
20084;SDS011;10202;48.474;9.138;2023-05-07T15:31:35;6.03;;;3.15;;
20084;SDS011;10202;48.474;9.138;2023-05-07T15:34:03;5.72;;;2.70;;